sensor_id;sensor_type;location;lat;lon;timestamp;temperature;humidity
12948;DHT22;6539;49.476;8.484;2023-02-04T00:00:23;10.90;99.90
12948;DHT22;6539;49.476;8.484;2023-02-04T00:02:51;10.80;99.90
12948;DHT22;6539;49.476;8.484;2023-02-04T00:05:17;11.00;99.90
12948;DHT22;6539;49.476;8.484;2023-02-04T00:07:44;11.10;99.90
12948;DHT22;6539;49.476;8.484;2023-02-04T00:10:10;10.60;99.90
12948;DHT22;6539;49.476;8.484;2023-02-04T00:12:38;11.10;99.90
12948;DHT22;6539;49.476;8.484;2023-02-04T00:15:04;11.10;99.90
12948;DHT22;6539;49.476;8.484;2023-02-04T00:17:31;10.90;99.90
12948;DHT22;6539;49.476;8.484;2023-02-04T00:19:56;11.10;99.90
12948;DHT22;6539;49.476;8.484;2023-02-04T00:22:22;11.00;99.90
12948;DHT22;6539;49.476;8.484;2023-02-04T00:24:48;11.20;99.90
12948;DHT22;6539;49.476;8.484;2023-02-04T00:27:15;10.80;99.90
12948;DHT22;6539;49.476;8.484;2023-02-04T00:29:41;10.90;99.90
12948;DHT22;6539;49.476;8.484;2023-02-04T00:32:09;10.90;99.90
12948;DHT22;6539;49.476;8.484;2023-02-04T00:34:39;11.00;99.90
12948;DHT22;6539;49.476;8.484;2023-02-04T00:37:06;11.20;99.90
12948;DHT22;6539;49.476;8.484;2023-02-04T00:39:35;11.10;99.90
12948;DHT22;6539;49.476;8.484;2023-02-04T00:42:01;11.20;99.90
12948;DHT22;6539;49.476;8.484;2023-02-04T00:44:31;11.00;99.90
12948;DHT22;6539;49.476;8.484;2023-02-04T00:46:57;11.00;99.90
12948;DHT22;6539;49.476;8.484;2023-02-04T00:49:26;10.80;99.90
12948;DHT22;6539;49.476;8.484;2023-02-04T00:51:52;10.90;99.90
12948;DHT22;6539;49.476;8.484;2023-02-04T00:54:20;10.90;99.90
12948;DHT22;6539;49.476;8.484;2023-02-04T00:56:48;10.90;99.90
12948;DHT22;6539;49.476;8.484;2023-02-04T00:59:16;10.80;99.90
12948;DHT22;6539;49.476;8.484;2023-02-04T01:01:44;10.80;99.90
12948;DHT22;6539;49.476;8.484;2023-02-04T01:04:10;11.10;99.90
12948;DHT22;6539;49.476;8.484;2023-02-04T01:06:39;10.80;99.90
12948;DHT22;6539;49.476;8.484;2023-02-04T01:09:05;11.00;99.90
12948;DHT22;6539;49.476;8.484;2023-02-04T01:11:36;10.80;99.90
12948;DHT22;6539;49.476;8.484;2023-02-04T01:16:30;11.00;99.90
12948;DHT22;6539;49.476;8.484;2023-02-04T01:18:58;11.00;99.90
12948;DHT22;6539;49.476;8.484;2023-02-04T01:21:25;11.00;99.90
12948;DHT22;6539;49.476;8.484;2023-02-04T01:23:53;11.00;99.90
12948;DHT22;6539;49.476;8.484;2023-02-04T01:26:21;10.80;99.90
12948;DHT22;6539;49.476;8.484;2023-02-04T01:28:47;10.70;99.90
12948;DHT22;6539;49.476;8.484;2023-02-04T01:31:13;10.80;99.90
12948;DHT22;6539;49.476;8.484;2023-02-04T01:33:39;11.00;99.90
12948;DHT22;6539;49.476;8.484;2023-02-04T01:36:05;10.80;99.90
12948;DHT22;6539;49.476;8.484;2023-02-04T01:38:34;11.00;99.90
12948;DHT22;6539;49.476;8.484;2023-02-04T01:41:00;11.10;99.90
12948;DHT22;6539;49.476;8.484;2023-02-04T01:43:27;11.10;99.90
12948;DHT22;6539;49.476;8.484;2023-02-04T01:45:53;11.10;99.90
12948;DHT22;6539;49.476;8.484;2023-02-04T01:48:24;10.80;99.90
12948;DHT22;6539;49.476;8.484;2023-02-04T01:50:52;10.90;99.90
12948;DHT22;6539;49.476;8.484;2023-02-04T01:53:25;12.50;99.90
12948;DHT22;6539;49.476;8.484;2023-02-04T01:55:55;10.70;99.90
12948;DHT22;6539;49.476;8.484;2023-02-04T01:58:21;10.90;99.90
12948;DHT22;6539;49.476;8.484;2023-02-04T02:00:48;11.20;99.90
12948;DHT22;6539;49.476;8.484;2023-02-04T02:03:13;10.90;99.90
12948;DHT22;6539;49.476;8.484;2023-02-04T02:05:50;10.90;99.90
12948;DHT22;6539;49.476;8.484;2023-02-04T02:08:20;10.80;99.90
12948;DHT22;6539;49.476;8.484;2023-02-04T02:10:47;10.90;99.90
12948;DHT22;6539;49.476;8.484;2023-02-04T02:13:16;10.90;99.90
12948;DHT22;6539;49.476;8.484;2023-02-04T02:15:44;10.90;99.90
12948;DHT22;6539;49.476;8.484;2023-02-04T02:18:11;10.80;99.90
12948;DHT22;6539;49.476;8.484;2023-02-04T02:20:44;10.90;99.90
12948;DHT22;6539;49.476;8.484;2023-02-04T02:26:15;10.90;99.90
12948;DHT22;6539;49.476;8.484;2023-02-04T02:28:48;10.90;99.90
12948;DHT22;6539;49.476;8.484;2023-02-04T02:31:16;10.60;99.90
12948;DHT22;6539;49.476;8.484;2023-02-04T02:33:43;10.90;99.90
12948;DHT22;6539;49.476;8.484;2023-02-04T02:36:09;10.90;99.90
12948;DHT22;6539;49.476;8.484;2023-02-04T02:38:38;11.10;99.90
12948;DHT22;6539;49.476;8.484;2023-02-04T02:41:05;10.90;99.90
12948;DHT22;6539;49.476;8.484;2023-02-04T02:43:34;10.80;99.90
12948;DHT22;6539;49.476;8.484;2023-02-04T02:46:02;11.00;99.90
12948;DHT22;6539;49.476;8.484;2023-02-04T02:48:30;10.80;99.90
12948;DHT22;6539;49.476;8.484;2023-02-04T02:50:59;10.80;99.90
12948;DHT22;6539;49.476;8.484;2023-02-04T02:53:25;10.90;99.90
12948;DHT22;6539;49.476;8.484;2023-02-04T02:55:50;10.90;99.90
12948;DHT22;6539;49.476;8.484;2023-02-04T02:58:35;10.90;99.90
12948;DHT22;6539;49.476;8.484;2023-02-04T03:01:06;10.90;99.90
12948;DHT22;6539;49.476;8.484;2023-02-04T03:03:36;10.80;99.90
12948;DHT22;6539;49.476;8.484;2023-02-04T03:06:12;10.80;99.90
12948;DHT22;6539;49.476;8.484;2023-02-04T03:08:42;10.60;99.90
12948;DHT22;6539;49.476;8.484;2023-02-04T03:11:09;10.80;99.90
12948;DHT22;6539;49.476;8.484;2023-02-04T03:13:35;11.30;99.90
12948;DHT22;6539;49.476;8.484;2023-02-04T03:16:02;10.50;99.90
12948;DHT22;6539;49.476;8.484;2023-02-04T03:18:30;10.70;99.90
12948;DHT22;6539;49.476;8.484;2023-02-04T03:20:56;10.70;99.90
12948;DHT22;6539;49.476;8.484;2023-02-04T03:23:23;10.60;99.90
12948;DHT22;6539;49.476;8.484;2023-02-04T03:25:53;10.60;99.90
12948;DHT22;6539;49.476;8.484;2023-02-04T03:28:21;10.50;99.90
12948;DHT22;6539;49.476;8.484;2023-02-04T03:30:52;10.50;99.90
12948;DHT22;6539;49.476;8.484;2023-02-04T03:33:26;10.40;99.90
12948;DHT22;6539;49.476;8.484;2023-02-04T03:35:58;10.20;99.90
12948;DHT22;6539;49.476;8.484;2023-02-04T03:38:27;10.40;99.90
12948;DHT22;6539;49.476;8.484;2023-02-04T03:40:53;10.20;99.90
12948;DHT22;6539;49.476;8.484;2023-02-04T03:43:19;10.20;99.90
12948;DHT22;6539;49.476;8.484;2023-02-04T03:45:47;10.40;99.90
12948;DHT22;6539;49.476;8.484;2023-02-04T03:48:13;10.30;99.90
12948;DHT22;6539;49.476;8.484;2023-02-04T03:50:41;10.20;99.90
12948;DHT22;6539;49.476;8.484;2023-02-04T03:53:07;10.20;99.90
12948;DHT22;6539;49.476;8.484;2023-02-04T03:55:35;10.00;99.90
12948;DHT22;6539;49.476;8.484;2023-02-04T03:58:02;10.40;99.90
12948;DHT22;6539;49.476;8.484;2023-02-04T04:00:29;10.20;99.90
12948;DHT22;6539;49.476;8.484;2023-02-04T04:02:57;10.20;99.90
12948;DHT22;6539;49.476;8.484;2023-02-04T04:05:26;10.20;99.90
12948;DHT22;6539;49.476;8.484;2023-02-04T04:07:52;10.20;99.90
12948;DHT22;6539;49.476;8.484;2023-02-04T04:10:18;10.20;99.90
12948;DHT22;6539;49.476;8.484;2023-02-04T04:12:44;10.00;99.90
12948;DHT22;6539;49.476;8.484;2023-02-04T04:15:12;10.30;99.90
12948;DHT22;6539;49.476;8.484;2023-02-04T04:17:38;10.10;99.90
12948;DHT22;6539;49.476;8.484;2023-02-04T04:20:04;10.10;99.90
12948;DHT22;6539;49.476;8.484;2023-02-04T04:22:32;10.30;99.90
12948;DHT22;6539;49.476;8.484;2023-02-04T04:25:00;10.30;99.90
12948;DHT22;6539;49.476;8.484;2023-02-04T04:27:29;10.10;99.90
12948;DHT22;6539;49.476;8.484;2023-02-04T04:29:57;10.00;99.90
12948;DHT22;6539;49.476;8.484;2023-02-04T04:32:23;10.30;99.90
12948;DHT22;6539;49.476;8.484;2023-02-04T04:34:51;10.20;99.90
12948;DHT22;6539;49.476;8.484;2023-02-04T04:37:20;10.20;99.90
12948;DHT22;6539;49.476;8.484;2023-02-04T04:39:45;10.20;99.90
12948;DHT22;6539;49.476;8.484;2023-02-04T04:42:13;10.40;99.90
12948;DHT22;6539;49.476;8.484;2023-02-04T04:44:41;10.40;99.90
12948;DHT22;6539;49.476;8.484;2023-02-04T04:47:09;10.20;99.90
12948;DHT22;6539;49.476;8.484;2023-02-04T04:49:35;9.90;99.90
12948;DHT22;6539;49.476;8.484;2023-02-04T04:52:01;10.00;99.90
12948;DHT22;6539;49.476;8.484;2023-02-04T04:54:27;10.10;99.90
12948;DHT22;6539;49.476;8.484;2023-02-04T04:56:55;10.10;99.90
12948;DHT22;6539;49.476;8.484;2023-02-04T04:59:21;10.10;99.90
12948;DHT22;6539;49.476;8.484;2023-02-04T05:01:49;10.10;99.90
12948;DHT22;6539;49.476;8.484;2023-02-04T05:04:14;10.10;99.90
12948;DHT22;6539;49.476;8.484;2023-02-04T05:06:42;10.00;99.90
12948;DHT22;6539;49.476;8.484;2023-02-04T05:09:09;10.40;99.90
12948;DHT22;6539;49.476;8.484;2023-02-04T05:11:35;10.00;99.90
12948;DHT22;6539;49.476;8.484;2023-02-04T05:14:01;10.00;99.90
12948;DHT22;6539;49.476;8.484;2023-02-04T05:16:26;10.30;99.90
12948;DHT22;6539;49.476;8.484;2023-02-04T05:18:55;10.20;99.90
12948;DHT22;6539;49.476;8.484;2023-02-04T05:21:20;10.20;99.90
12948;DHT22;6539;49.476;8.484;2023-02-04T05:23:48;10.00;99.90
12948;DHT22;6539;49.476;8.484;2023-02-04T05:26:24;10.00;99.90
12948;DHT22;6539;49.476;8.484;2023-02-04T05:28:53;9.80;99.90
12948;DHT22;6539;49.476;8.484;2023-02-04T05:31:19;9.90;99.90
12948;DHT22;6539;49.476;8.484;2023-02-04T05:33:45;10.40;99.90
12948;DHT22;6539;49.476;8.484;2023-02-04T05:36:10;10.10;99.90
12948;DHT22;6539;49.476;8.484;2023-02-04T05:38:36;10.00;99.90
12948;DHT22;6539;49.476;8.484;2023-02-04T05:41:02;9.80;99.90
12948;DHT22;6539;49.476;8.484;2023-02-04T05:43:30;10.20;99.90
12948;DHT22;6539;49.476;8.484;2023-02-04T05:48:22;10.30;99.90
12948;DHT22;6539;49.476;8.484;2023-02-04T05:50:48;9.90;99.90
12948;DHT22;6539;49.476;8.484;2023-02-04T05:53:19;10.20;99.90
12948;DHT22;6539;49.476;8.484;2023-02-04T05:55:48;10.10;99.90
12948;DHT22;6539;49.476;8.484;2023-02-04T05:58:16;10.00;99.90
12948;DHT22;6539;49.476;8.484;2023-02-04T06:00:42;10.10;99.90
12948;DHT22;6539;49.476;8.484;2023-02-04T06:03:08;9.70;99.90
12948;DHT22;6539;49.476;8.484;2023-02-04T06:05:33;9.90;99.90
12948;DHT22;6539;49.476;8.484;2023-02-04T06:07:59;9.90;99.90
12948;DHT22;6539;49.476;8.484;2023-02-04T06:10:27;9.90;99.90
12948;DHT22;6539;49.476;8.484;2023-02-04T06:12:55;9.90;99.90
12948;DHT22;6539;49.476;8.484;2023-02-04T06:15:25;9.70;99.90
12948;DHT22;6539;49.476;8.484;2023-02-04T06:17:51;9.70;99.90
12948;DHT22;6539;49.476;8.484;2023-02-04T06:20:19;9.90;99.90
12948;DHT22;6539;49.476;8.484;2023-02-04T06:22:45;9.90;99.90
12948;DHT22;6539;49.476;8.484;2023-02-04T06:25:18;9.70;99.90
12948;DHT22;6539;49.476;8.484;2023-02-04T06:27:49;9.80;99.90
12948;DHT22;6539;49.476;8.484;2023-02-04T06:30:16;9.90;99.90
12948;DHT22;6539;49.476;8.484;2023-02-04T06:32:47;9.80;99.90
12948;DHT22;6539;49.476;8.484;2023-02-04T06:35:13;9.80;99.90
12948;DHT22;6539;49.476;8.484;2023-02-04T06:37:43;10.00;99.90
12948;DHT22;6539;49.476;8.484;2023-02-04T06:40:09;9.70;99.90
12948;DHT22;6539;49.476;8.484;2023-02-04T06:42:36;9.90;99.90
12948;DHT22;6539;49.476;8.484;2023-02-04T06:47:29;9.60;99.90
12948;DHT22;6539;49.476;8.484;2023-02-04T06:49:57;9.80;99.90
12948;DHT22;6539;49.476;8.484;2023-02-04T06:52:22;9.80;99.90
12948;DHT22;6539;49.476;8.484;2023-02-04T06:54:50;9.90;99.90
12948;DHT22;6539;49.476;8.484;2023-02-04T06:57:18;10.40;99.90
12948;DHT22;6539;49.476;8.484;2023-02-04T06:59:44;9.70;99.90
12948;DHT22;6539;49.476;8.484;2023-02-04T07:02:12;9.80;99.90
12948;DHT22;6539;49.476;8.484;2023-02-04T07:04:38;9.90;99.90
12948;DHT22;6539;49.476;8.484;2023-02-04T07:07:08;9.60;99.90
12948;DHT22;6539;49.476;8.484;2023-02-04T07:09:37;10.00;99.90
12948;DHT22;6539;49.476;8.484;2023-02-04T07:12:05;10.00;99.90
12948;DHT22;6539;49.476;8.484;2023-02-04T07:14:33;9.70;99.90
12948;DHT22;6539;49.476;8.484;2023-02-04T07:17:01;9.90;99.90
12948;DHT22;6539;49.476;8.484;2023-02-04T07:19:30;9.70;99.90
12948;DHT22;6539;49.476;8.484;2023-02-04T07:21:58;9.80;99.90
12948;DHT22;6539;49.476;8.484;2023-02-04T07:24:24;9.60;99.90
12948;DHT22;6539;49.476;8.484;2023-02-04T07:26:52;9.80;99.90
12948;DHT22;6539;49.476;8.484;2023-02-04T07:29:22;9.70;99.90
12948;DHT22;6539;49.476;8.484;2023-02-04T07:31:48;9.90;99.90
12948;DHT22;6539;49.476;8.484;2023-02-04T07:34:16;9.80;99.90
12948;DHT22;6539;49.476;8.484;2023-02-04T07:36:45;10.00;99.90
12948;DHT22;6539;49.476;8.484;2023-02-04T07:39:10;10.10;99.90
12948;DHT22;6539;49.476;8.484;2023-02-04T07:41:40;9.90;99.90
12948;DHT22;6539;49.476;8.484;2023-02-04T07:44:06;9.90;99.90
12948;DHT22;6539;49.476;8.484;2023-02-04T07:46:32;10.00;99.90
12948;DHT22;6539;49.476;8.484;2023-02-04T07:49:00;9.80;99.90
12948;DHT22;6539;49.476;8.484;2023-02-04T07:51:28;10.00;99.90
12948;DHT22;6539;49.476;8.484;2023-02-04T07:53:55;9.90;99.90
12948;DHT22;6539;49.476;8.484;2023-02-04T07:56:20;9.80;99.90
12948;DHT22;6539;49.476;8.484;2023-02-04T07:58:46;9.70;99.90
12948;DHT22;6539;49.476;8.484;2023-02-04T08:01:14;9.90;99.90
12948;DHT22;6539;49.476;8.484;2023-02-04T08:03:41;9.80;99.90
12948;DHT22;6539;49.476;8.484;2023-02-04T08:06:07;10.10;99.90
12948;DHT22;6539;49.476;8.484;2023-02-04T08:08:38;9.90;99.90
12948;DHT22;6539;49.476;8.484;2023-02-04T08:11:06;9.90;99.90
12948;DHT22;6539;49.476;8.484;2023-02-04T08:13:34;10.00;99.90
12948;DHT22;6539;49.476;8.484;2023-02-04T08:16:00;9.90;99.90
12948;DHT22;6539;49.476;8.484;2023-02-04T08:18:28;10.20;99.90
12948;DHT22;6539;49.476;8.484;2023-02-04T08:20:54;9.90;99.90
12948;DHT22;6539;49.476;8.484;2023-02-04T08:23:22;9.90;99.90
12948;DHT22;6539;49.476;8.484;2023-02-04T08:25:48;9.90;99.90
12948;DHT22;6539;49.476;8.484;2023-02-04T08:28:14;10.10;99.90
12948;DHT22;6539;49.476;8.484;2023-02-04T08:30:39;10.00;99.90
12948;DHT22;6539;49.476;8.484;2023-02-04T08:33:07;9.90;99.90
12948;DHT22;6539;49.476;8.484;2023-02-04T08:35:33;10.00;99.90
12948;DHT22;6539;49.476;8.484;2023-02-04T08:38:01;10.10;99.90
12948;DHT22;6539;49.476;8.484;2023-02-04T08:40:27;10.20;99.90
12948;DHT22;6539;49.476;8.484;2023-02-04T08:42:55;10.60;99.90
12948;DHT22;6539;49.476;8.484;2023-02-04T08:45:24;10.10;99.90
12948;DHT22;6539;49.476;8.484;2023-02-04T08:47:49;10.50;99.90
12948;DHT22;6539;49.476;8.484;2023-02-04T08:50:16;10.30;99.90
12948;DHT22;6539;49.476;8.484;2023-02-04T08:52:45;10.50;99.90
12948;DHT22;6539;49.476;8.484;2023-02-04T08:55:13;10.60;99.90
12948;DHT22;6539;49.476;8.484;2023-02-04T08:57:40;10.50;99.90
12948;DHT22;6539;49.476;8.484;2023-02-04T09:00:06;10.50;99.90
12948;DHT22;6539;49.476;8.484;2023-02-04T09:02:32;10.50;99.90
12948;DHT22;6539;49.476;8.484;2023-02-04T09:04:58;10.60;99.90
12948;DHT22;6539;49.476;8.484;2023-02-04T09:07:23;10.90;99.90
12948;DHT22;6539;49.476;8.484;2023-02-04T09:09:54;10.80;99.90
12948;DHT22;6539;49.476;8.484;2023-02-04T09:12:20;10.70;99.90
12948;DHT22;6539;49.476;8.484;2023-02-04T09:14:50;10.80;99.90
12948;DHT22;6539;49.476;8.484;2023-02-04T09:17:16;10.70;99.90
12948;DHT22;6539;49.476;8.484;2023-02-04T09:19:42;10.70;99.90
12948;DHT22;6539;49.476;8.484;2023-02-04T09:22:08;10.80;99.90
12948;DHT22;6539;49.476;8.484;2023-02-04T09:24:36;11.20;99.90
12948;DHT22;6539;49.476;8.484;2023-02-04T09:27:09;10.90;99.90
12948;DHT22;6539;49.476;8.484;2023-02-04T09:29:34;11.10;99.90
12948;DHT22;6539;49.476;8.484;2023-02-04T09:32:00;11.00;99.90
12948;DHT22;6539;49.476;8.484;2023-02-04T09:34:26;11.10;99.90
12948;DHT22;6539;49.476;8.484;2023-02-04T09:36:54;11.00;99.90
12948;DHT22;6539;49.476;8.484;2023-02-04T09:39:22;10.80;99.90
12948;DHT22;6539;49.476;8.484;2023-02-04T09:41:50;10.90;99.90
12948;DHT22;6539;49.476;8.484;2023-02-04T09:44:23;11.10;99.90
12948;DHT22;6539;49.476;8.484;2023-02-04T09:46:54;11.10;99.90
12948;DHT22;6539;49.476;8.484;2023-02-04T09:49:23;11.30;99.90
12948;DHT22;6539;49.476;8.484;2023-02-04T09:51:51;11.50;99.90
12948;DHT22;6539;49.476;8.484;2023-02-04T09:54:19;11.60;99.90
12948;DHT22;6539;49.476;8.484;2023-02-04T09:56:49;11.50;99.90
12948;DHT22;6539;49.476;8.484;2023-02-04T09:59:22;11.60;99.90
12948;DHT22;6539;49.476;8.484;2023-02-04T10:02:01;11.60;99.90
12948;DHT22;6539;49.476;8.484;2023-02-04T10:04:32;11.60;99.90
12948;DHT22;6539;49.476;8.484;2023-02-04T10:06:58;11.20;99.90
12948;DHT22;6539;49.476;8.484;2023-02-04T10:09:26;11.40;99.90
12948;DHT22;6539;49.476;8.484;2023-02-04T10:14:22;11.10;99.90
12948;DHT22;6539;49.476;8.484;2023-02-04T10:16:53;11.30;99.90
12948;DHT22;6539;49.476;8.484;2023-02-04T10:19:22;11.20;99.90
12948;DHT22;6539;49.476;8.484;2023-02-04T10:21:51;11.40;99.90
12948;DHT22;6539;49.476;8.484;2023-02-04T10:24:22;11.60;99.90
12948;DHT22;6539;49.476;8.484;2023-02-04T10:26:51;11.50;99.90
12948;DHT22;6539;49.476;8.484;2023-02-04T10:29:23;11.70;99.90
12948;DHT22;6539;49.476;8.484;2023-02-04T10:31:50;11.80;99.90
12948;DHT22;6539;49.476;8.484;2023-02-04T10:36:53;12.10;99.90
12948;DHT22;6539;49.476;8.484;2023-02-04T10:39:29;12.00;99.90
12948;DHT22;6539;49.476;8.484;2023-02-04T10:41:57;12.20;99.90
12948;DHT22;6539;49.476;8.484;2023-02-04T10:44:26;12.00;99.90
12948;DHT22;6539;49.476;8.484;2023-02-04T10:47:04;12.20;99.90
12948;DHT22;6539;49.476;8.484;2023-02-04T10:52:52;12.10;99.90
12948;DHT22;6539;49.476;8.484;2023-02-04T10:55:50;11.90;99.90
12948;DHT22;6539;49.476;8.484;2023-02-04T10:58:27;11.90;99.90
12948;DHT22;6539;49.476;8.484;2023-02-04T11:00:57;11.90;99.90
12948;DHT22;6539;49.476;8.484;2023-02-04T11:03:27;11.80;99.90
12948;DHT22;6539;49.476;8.484;2023-02-04T11:05:56;11.50;99.90
12948;DHT22;6539;49.476;8.484;2023-02-04T11:08:30;11.70;99.90
12948;DHT22;6539;49.476;8.484;2023-02-04T11:11:07;11.70;99.90
12948;DHT22;6539;49.476;8.484;2023-02-04T11:13:43;11.40;99.90
12948;DHT22;6539;49.476;8.484;2023-02-04T11:16:46;11.40;99.90
12948;DHT22;6539;49.476;8.484;2023-02-04T11:19:13;11.60;99.90
12948;DHT22;6539;49.476;8.484;2023-02-04T11:21:44;11.30;99.90
12948;DHT22;6539;49.476;8.484;2023-02-04T11:27:05;11.30;99.90
12948;DHT22;6539;49.476;8.484;2023-02-04T11:29:45;11.20;99.90
12948;DHT22;6539;49.476;8.484;2023-02-04T11:37:38;11.10;99.90
12948;DHT22;6539;49.476;8.484;2023-02-04T11:40:32;11.20;99.90
12948;DHT22;6539;49.476;8.484;2023-02-04T11:43:14;11.20;99.90
12948;DHT22;6539;49.476;8.484;2023-02-04T11:45:41;11.40;99.90
12948;DHT22;6539;49.476;8.484;2023-02-04T11:48:18;11.60;99.90
12948;DHT22;6539;49.476;8.484;2023-02-04T11:50:59;11.50;99.90
12948;DHT22;6539;49.476;8.484;2023-02-04T11:53:30;12.10;99.90
12948;DHT22;6539;49.476;8.484;2023-02-04T11:56:00;12.70;99.90
12948;DHT22;6539;49.476;8.484;2023-02-04T11:58:28;13.00;99.90
12948;DHT22;6539;49.476;8.484;2023-02-04T12:01:00;13.30;99.90
12948;DHT22;6539;49.476;8.484;2023-02-04T12:05:52;14.00;99.90
12948;DHT22;6539;49.476;8.484;2023-02-04T12:11:22;13.80;99.90
12948;DHT22;6539;49.476;8.484;2023-02-04T12:13:57;13.20;99.90
12948;DHT22;6539;49.476;8.484;2023-02-04T12:16:48;13.40;99.90
12948;DHT22;6539;49.476;8.484;2023-02-04T12:19:18;13.00;99.90
12948;DHT22;6539;49.476;8.484;2023-02-04T12:21:46;13.30;99.90
12948;DHT22;6539;49.476;8.484;2023-02-04T12:24:12;13.40;99.90
12948;DHT22;6539;49.476;8.484;2023-02-04T12:26:37;13.10;99.90
12948;DHT22;6539;49.476;8.484;2023-02-04T12:29:03;12.90;99.90
12948;DHT22;6539;49.476;8.484;2023-02-04T12:31:32;12.90;99.90
12948;DHT22;6539;49.476;8.484;2023-02-04T12:33:59;12.70;99.90
12948;DHT22;6539;49.476;8.484;2023-02-04T12:36:25;12.70;99.90
12948;DHT22;6539;49.476;8.484;2023-02-04T12:38:52;10.40;99.90
12948;DHT22;6539;49.476;8.484;2023-02-04T12:41:18;12.40;99.90
12948;DHT22;6539;49.476;8.484;2023-02-04T12:43:47;12.40;99.90
12948;DHT22;6539;49.476;8.484;2023-02-04T12:46:18;12.30;99.90
12948;DHT22;6539;49.476;8.484;2023-02-04T12:48:44;12.20;99.90
12948;DHT22;6539;49.476;8.484;2023-02-04T12:51:09;12.20;99.90
12948;DHT22;6539;49.476;8.484;2023-02-04T12:53:40;12.20;99.90
12948;DHT22;6539;49.476;8.484;2023-02-04T12:56:06;12.30;99.90
12948;DHT22;6539;49.476;8.484;2023-02-04T12:58:32;12.10;99.90
12948;DHT22;6539;49.476;8.484;2023-02-04T13:00:58;12.10;99.90
12948;DHT22;6539;49.476;8.484;2023-02-04T13:03:23;12.00;99.90
12948;DHT22;6539;49.476;8.484;2023-02-04T13:05:49;12.00;99.90
12948;DHT22;6539;49.476;8.484;2023-02-04T13:08:15;11.90;99.90
12948;DHT22;6539;49.476;8.484;2023-02-04T13:10:41;12.00;99.90
12948;DHT22;6539;49.476;8.484;2023-02-04T13:13:07;12.20;99.90
12948;DHT22;6539;49.476;8.484;2023-02-04T13:15:35;11.90;99.90
12948;DHT22;6539;49.476;8.484;2023-02-04T13:18:03;11.90;99.90
12948;DHT22;6539;49.476;8.484;2023-02-04T13:20:32;12.00;99.90
12948;DHT22;6539;49.476;8.484;2023-02-04T13:23:01;12.10;99.90
12948;DHT22;6539;49.476;8.484;2023-02-04T13:25:27;12.10;99.90
12948;DHT22;6539;49.476;8.484;2023-02-04T13:28:02;12.20;99.90
12948;DHT22;6539;49.476;8.484;2023-02-04T13:30:28;12.20;99.90
12948;DHT22;6539;49.476;8.484;2023-02-04T13:32:56;12.10;99.90
12948;DHT22;6539;49.476;8.484;2023-02-04T13:35:22;11.90;99.90
12948;DHT22;6539;49.476;8.484;2023-02-04T13:37:52;11.90;99.90
12948;DHT22;6539;49.476;8.484;2023-02-04T13:40:18;11.80;99.90
12948;DHT22;6539;49.476;8.484;2023-02-04T13:42:44;11.80;99.90
12948;DHT22;6539;49.476;8.484;2023-02-04T13:45:15;11.60;99.90
12948;DHT22;6539;49.476;8.484;2023-02-04T13:47:43;11.90;99.90
12948;DHT22;6539;49.476;8.484;2023-02-04T13:50:09;12.00;99.90
12948;DHT22;6539;49.476;8.484;2023-02-04T13:52:40;12.10;99.90
12948;DHT22;6539;49.476;8.484;2023-02-04T13:55:08;12.10;99.90
12948;DHT22;6539;49.476;8.484;2023-02-04T13:57:34;12.10;99.90
12948;DHT22;6539;49.476;8.484;2023-02-04T14:00:02;12.10;99.90
12948;DHT22;6539;49.476;8.484;2023-02-04T14:02:29;12.10;99.90
12948;DHT22;6539;49.476;8.484;2023-02-04T14:04:54;12.00;99.90
12948;DHT22;6539;49.476;8.484;2023-02-04T14:07:22;11.80;99.90
12948;DHT22;6539;49.476;8.484;2023-02-04T14:09:47;11.90;99.90
12948;DHT22;6539;49.476;8.484;2023-02-04T14:12:16;12.00;99.90
12948;DHT22;6539;49.476;8.484;2023-02-04T14:14:41;12.00;99.90
12948;DHT22;6539;49.476;8.484;2023-02-04T14:17:09;11.90;99.90
12948;DHT22;6539;49.476;8.484;2023-02-04T14:19:38;11.90;99.90
12948;DHT22;6539;49.476;8.484;2023-02-04T14:22:06;12.20;99.90
12948;DHT22;6539;49.476;8.484;2023-02-04T14:24:32;11.70;99.90
12948;DHT22;6539;49.476;8.484;2023-02-04T14:26:58;11.70;99.90
12948;DHT22;6539;49.476;8.484;2023-02-04T14:29:25;11.80;99.90
12948;DHT22;6539;49.476;8.484;2023-02-04T14:31:51;11.80;99.90
12948;DHT22;6539;49.476;8.484;2023-02-04T14:34:17;11.90;99.90
12948;DHT22;6539;49.476;8.484;2023-02-04T14:36:42;11.90;99.90
12948;DHT22;6539;49.476;8.484;2023-02-04T14:39:10;11.60;99.90
12948;DHT22;6539;49.476;8.484;2023-02-04T14:41:36;11.30;99.90
12948;DHT22;6539;49.476;8.484;2023-02-04T14:44:04;11.20;99.90
12948;DHT22;6539;49.476;8.484;2023-02-04T14:46:30;11.60;99.90
12948;DHT22;6539;49.476;8.484;2023-02-04T14:48:55;11.40;99.90
12948;DHT22;6539;49.476;8.484;2023-02-04T14:51:21;11.50;99.90
12948;DHT22;6539;49.476;8.484;2023-02-04T14:53:47;11.60;99.90
12948;DHT22;6539;49.476;8.484;2023-02-04T14:56:15;11.10;99.90
12948;DHT22;6539;49.476;8.484;2023-02-04T14:58:41;11.30;99.90
12948;DHT22;6539;49.476;8.484;2023-02-04T15:01:09;11.20;99.90
12948;DHT22;6539;49.476;8.484;2023-02-04T15:03:38;11.30;99.90
12948;DHT22;6539;49.476;8.484;2023-02-04T15:06:06;11.00;99.90
12948;DHT22;6539;49.476;8.484;2023-02-04T15:11:01;11.20;99.90
12948;DHT22;6539;49.476;8.484;2023-02-04T15:13:29;11.20;99.90
12948;DHT22;6539;49.476;8.484;2023-02-04T15:15:55;11.20;99.90
12948;DHT22;6539;49.476;8.484;2023-02-04T15:18:23;11.80;99.90
12948;DHT22;6539;49.476;8.484;2023-02-04T15:20:51;11.00;99.90
12948;DHT22;6539;49.476;8.484;2023-02-04T15:23:19;11.00;99.90
12948;DHT22;6539;49.476;8.484;2023-02-04T15:25:47;10.80;99.90
12948;DHT22;6539;49.476;8.484;2023-02-04T15:28:15;10.80;99.90
12948;DHT22;6539;49.476;8.484;2023-02-04T15:30:42;11.00;99.90
12948;DHT22;6539;49.476;8.484;2023-02-04T15:33:08;10.90;99.90
12948;DHT22;6539;49.476;8.484;2023-02-04T15:35:33;10.80;99.90
12948;DHT22;6539;49.476;8.484;2023-02-04T15:38:01;11.00;99.90
12948;DHT22;6539;49.476;8.484;2023-02-04T15:40:27;10.90;99.90
12948;DHT22;6539;49.476;8.484;2023-02-04T15:42:54;10.90;99.90
12948;DHT22;6539;49.476;8.484;2023-02-04T15:45:20;10.60;99.90
12948;DHT22;6539;49.476;8.484;2023-02-04T15:47:48;11.20;99.90
12948;DHT22;6539;49.476;8.484;2023-02-04T15:50:16;10.80;99.90
12948;DHT22;6539;49.476;8.484;2023-02-04T15:52:42;10.70;99.90
12948;DHT22;6539;49.476;8.484;2023-02-04T15:55:11;10.60;99.90
12948;DHT22;6539;49.476;8.484;2023-02-04T16:00:06;11.00;99.90
12948;DHT22;6539;49.476;8.484;2023-02-04T16:02:32;10.70;99.90
12948;DHT22;6539;49.476;8.484;2023-02-04T16:04:58;10.90;99.90
12948;DHT22;6539;49.476;8.484;2023-02-04T16:07:24;10.90;99.90
12948;DHT22;6539;49.476;8.484;2023-02-04T16:09:50;10.90;99.90
12948;DHT22;6539;49.476;8.484;2023-02-04T16:12:15;10.80;99.90
12948;DHT22;6539;49.476;8.484;2023-02-04T16:14:41;10.60;99.90
12948;DHT22;6539;49.476;8.484;2023-02-04T16:17:09;10.60;99.90
12948;DHT22;6539;49.476;8.484;2023-02-04T16:19:37;10.50;99.90
12948;DHT22;6539;49.476;8.484;2023-02-04T16:22:03;10.60;99.90
12948;DHT22;6539;49.476;8.484;2023-02-04T16:24:32;10.50;99.90
12948;DHT22;6539;49.476;8.484;2023-02-04T16:26:59;10.50;99.90
12948;DHT22;6539;49.476;8.484;2023-02-04T16:29:25;10.80;99.90